sensor_id;sensor_type;location;lat;lon;timestamp;pressure;altitude;pressure_sealevel;temperature;humidity
69086;BME280;56186;59.144;37.936;2022-07-29T00:00:52;100017.78;;;20.31;74.79
69086;BME280;56186;59.144;37.936;2022-07-29T00:03:18;100018.41;;;20.24;74.96
69086;BME280;56186;59.144;37.936;2022-07-29T00:05:45;99994.16;;;20.07;74.95
69086;BME280;56186;59.144;37.936;2022-07-29T00:08:11;100027.53;;;20.31;74.73
69086;BME280;56186;59.144;37.936;2022-07-29T00:10:37;100024.09;;;20.19;74.69
69086;BME280;56186;59.144;37.936;2022-07-29T00:13:04;100022.66;;;20.15;74.87
69086;BME280;56186;59.144;37.936;2022-07-29T00:15:30;100022.81;;;20.13;74.95
69086;BME280;56186;59.144;37.936;2022-07-29T00:17:56;100024.09;;;20.19;74.69
69086;BME280;56186;59.144;37.936;2022-07-29T00:24:39;99973.75;;;19.87;74.27
69086;BME280;56186;59.144;37.936;2022-07-29T00:27:05;100033.09;;;20.28;74.22
69086;BME280;56186;59.144;37.936;2022-07-29T00:29:31;100039.25;;;20.28;73.91
69086;BME280;56186;59.144;37.936;2022-07-29T00:31:57;99995.38;;;20.03;74.40
69086;BME280;56186;59.144;37.936;2022-07-29T00:34:23;99984.09;;;19.90;74.16
69086;BME280;56186;59.144;37.936;2022-07-29T00:37:07;100033.78;;;20.20;74.27
69086;BME280;56186;59.144;37.936;2022-07-29T00:39:34;99979.94;;;19.76;74.32
69086;BME280;56186;59.144;37.936;2022-07-29T00:42:03;100037.47;;;19.96;74.42
69086;BME280;56186;59.144;37.936;2022-07-29T00:44:29;100037.78;;;19.82;74.58
69086;BME280;56186;59.144;37.936;2022-07-29T00:46:55;100036.59;;;19.75;74.76
69086;BME280;56186;59.144;37.936;2022-07-29T00:49:21;99971.72;;;19.35;74.87
69086;BME280;56186;59.144;37.936;2022-07-29T00:51:48;100034.53;;;19.67;74.77
69086;BME280;56186;59.144;37.936;2022-07-29T00:54:15;100037.94;;;19.58;74.79
69086;BME280;56186;59.144;37.936;2022-07-29T00:56:42;100028.69;;;19.41;74.59
69086;BME280;56186;59.144;37.936;2022-07-29T00:59:08;99980.47;;;18.81;75.18
69086;BME280;56186;59.144;37.936;2022-07-29T01:01:34;100032.69;;;19.13;75.49
69086;BME280;56186;59.144;37.936;2022-07-29T01:04:00;100042.94;;;19.18;75.49
69086;BME280;56186;59.144;37.936;2022-07-29T01:06:27;100042.44;;;19.24;75.08
69086;BME280;56186;59.144;37.936;2022-07-29T01:08:53;100039.69;;;19.25;75.04
69086;BME280;56186;59.144;37.936;2022-07-29T01:11:20;100036.31;;;19.23;74.97
69086;BME280;56186;59.144;37.936;2022-07-29T01:13:47;100048.00;;;19.21;75.30
69086;BME280;56186;59.144;37.936;2022-07-29T01:16:31;100049.69;;;18.99;75.15
69086;BME280;56186;59.144;37.936;2022-07-29T01:19:07;100042.81;;;18.97;75.41
69086;BME280;56186;59.144;37.936;2022-07-29T01:21:50;100010.56;;;18.80;75.51
69086;BME280;56186;59.144;37.936;2022-07-29T01:27:07;99997.91;;;18.84;75.24
69086;BME280;56186;59.144;37.936;2022-07-29T01:29:47;100049.19;;;19.17;75.30
69086;BME280;56186;59.144;37.936;2022-07-29T01:32:35;100055.34;;;19.17;74.99
69086;BME280;56186;59.144;37.936;2022-07-29T01:35:10;100051.84;;;19.17;74.88
69086;BME280;56186;59.144;37.936;2022-07-29T01:37:52;100067.59;;;19.18;74.99
69086;BME280;56186;59.144;37.936;2022-07-29T01:40:49;100057.00;;;19.18;75.15
69086;BME280;56186;59.144;37.936;2022-07-29T01:43:27;100060.16;;;19.23;75.20
69086;BME280;56186;59.144;37.936;2022-07-29T01:46:33;100051.13;;;19.26;74.87
69086;BME280;56186;59.144;37.936;2022-07-29T01:49:24;100046.41;;;19.18;75.01
69086;BME280;56186;59.144;37.936;2022-07-29T01:51:54;100048.22;;;19.18;74.55
69086;BME280;56186;59.144;37.936;2022-07-29T01:54:32;100042.81;;;19.08;74.87
69086;BME280;56186;59.144;37.936;2022-07-29T01:57:01;99993.41;;;18.62;75.11
69086;BME280;56186;59.144;37.936;2022-07-29T01:59:30;100057.72;;;18.86;75.42
69086;BME280;56186;59.144;37.936;2022-07-29T02:01:59;100066.16;;;18.80;75.16
69086;BME280;56186;59.144;37.936;2022-07-29T02:04:28;100060.88;;;18.80;75.11
69086;BME280;56186;59.144;37.936;2022-07-29T02:07:00;100065.09;;;18.83;75.10
69086;BME280;56186;59.144;37.936;2022-07-29T02:09:28;100056.88;;;18.86;75.26
69086;BME280;56186;59.144;37.936;2022-07-29T02:16:14;100074.28;;;18.66;75.47
69086;BME280;56186;59.144;37.936;2022-07-29T02:18:44;100069.47;;;18.71;75.67
69086;BME280;56186;59.144;37.936;2022-07-29T02:21:12;100079.88;;;18.85;75.08
69086;BME280;56186;59.144;37.936;2022-07-29T02:23:39;100079.28;;;18.93;75.02
69086;BME280;56186;59.144;37.936;2022-07-29T02:26:06;100083.72;;;18.92;74.81
69086;BME280;56186;59.144;37.936;2022-07-29T02:28:34;100088.78;;;18.96;75.15
69086;BME280;56186;59.144;37.936;2022-07-29T02:35:46;100093.72;;;19.00;74.59
69086;BME280;56186;59.144;37.936;2022-07-29T02:38:14;100092.66;;;19.03;74.99
69086;BME280;56186;59.144;37.936;2022-07-29T02:41:06;100091.44;;;19.07;74.52
69086;BME280;56186;59.144;37.936;2022-07-29T02:43:34;100080.63;;;18.99;74.83
69086;BME280;56186;59.144;37.936;2022-07-29T02:46:04;100087.22;;;19.04;74.74
69086;BME280;56186;59.144;37.936;2022-07-29T02:48:41;100089.28;;;19.12;74.28
69086;BME280;56186;59.144;37.936;2022-07-29T02:51:16;100077.25;;;19.08;74.50
69086;BME280;56186;59.144;37.936;2022-07-29T02:53:49;100085.56;;;19.14;74.44
69086;BME280;56186;59.144;37.936;2022-07-29T02:56:20;100094.34;;;19.15;74.08
69086;BME280;56186;59.144;37.936;2022-07-29T02:58:54;100078.09;;;19.08;74.06
69086;BME280;56186;59.144;37.936;2022-07-29T03:01:25;100090.84;;;19.14;74.32
69086;BME280;56186;59.144;37.936;2022-07-29T03:03:55;100100.38;;;19.17;74.40
69086;BME280;56186;59.144;37.936;2022-07-29T03:06:23;100073.88;;;19.17;74.20
69086;BME280;56186;59.144;37.936;2022-07-29T03:08:51;100080.00;;;19.18;73.77
69086;BME280;56186;59.144;37.936;2022-07-29T03:11:17;100084.84;;;19.24;73.58
69086;BME280;56186;59.144;37.936;2022-07-29T03:13:44;100084.09;;;19.22;73.42
69086;BME280;56186;59.144;37.936;2022-07-29T03:16:11;100081.56;;;19.20;73.64
69086;BME280;56186;59.144;37.936;2022-07-29T03:18:38;100086.75;;;19.22;73.52
69086;BME280;56186;59.144;37.936;2022-07-29T03:21:05;100074.97;;;19.14;73.79
69086;BME280;56186;59.144;37.936;2022-07-29T03:23:31;100082.91;;;19.26;73.84
69086;BME280;56186;59.144;37.936;2022-07-29T03:25:57;100033.41;;;18.81;73.12
69086;BME280;56186;59.144;37.936;2022-07-29T03:28:23;100090.72;;;19.05;73.88
69086;BME280;56186;59.144;37.936;2022-07-29T03:30:49;100071.47;;;19.03;73.51
69086;BME280;56186;59.144;37.936;2022-07-29T03:33:16;100079.44;;;19.14;73.64
69086;BME280;56186;59.144;37.936;2022-07-29T03:35:42;100084.59;;;19.16;73.44
69086;BME280;56186;59.144;37.936;2022-07-29T03:38:08;100066.53;;;19.09;73.27
69086;BME280;56186;59.144;37.936;2022-07-29T03:40:40;100080.00;;;19.18;73.13
69086;BME280;56186;59.144;37.936;2022-07-29T03:43:08;100067.84;;;18.92;73.42
69086;BME280;56186;59.144;37.936;2022-07-29T03:49:59;100080.09;;;18.93;73.76
69086;BME280;56186;59.144;37.936;2022-07-29T03:52:26;100083.84;;;19.02;73.60
69086;BME280;56186;59.144;37.936;2022-07-29T03:54:52;100084.00;;;19.12;73.44
69086;BME280;56186;59.144;37.936;2022-07-29T03:57:20;100078.44;;;19.04;72.85
69086;BME280;56186;59.144;37.936;2022-07-29T03:59:48;100087.72;;;18.98;73.51
69086;BME280;56186;59.144;37.936;2022-07-29T04:02:16;100024.34;;;18.61;73.55
69086;BME280;56186;59.144;37.936;2022-07-29T04:04:42;100106.38;;;19.08;73.12
69086;BME280;56186;59.144;37.936;2022-07-29T04:07:12;100097.97;;;19.14;73.03
69086;BME280;56186;59.144;37.936;2022-07-29T04:09:38;100060.00;;;18.91;73.04
69086;BME280;56186;59.144;37.936;2022-07-29T04:12:04;100050.41;;;18.90;73.00
69086;BME280;56186;59.144;37.936;2022-07-29T04:14:32;100091.44;;;19.18;72.49
69086;BME280;56186;59.144;37.936;2022-07-29T04:17:02;100120.47;;;19.08;72.28
69086;BME280;56186;59.144;37.936;2022-07-29T04:19:28;100100.78;;;18.77;72.91
69086;BME280;56186;59.144;37.936;2022-07-29T04:21:55;100114.34;;;18.72;72.96
69086;BME280;56186;59.144;37.936;2022-07-29T04:24:21;100118.25;;;18.80;73.45
69086;BME280;56186;59.144;37.936;2022-07-29T04:26:48;100077.06;;;18.64;73.55
69086;BME280;56186;59.144;37.936;2022-07-29T04:29:14;100112.97;;;18.91;72.87
69086;BME280;56186;59.144;37.936;2022-07-29T04:31:41;100110.47;;;18.89;72.70
69086;BME280;56186;59.144;37.936;2022-07-29T04:34:08;100117.69;;;18.99;72.86
69086;BME280;56186;59.144;37.936;2022-07-29T04:36:53;100112.16;;;19.02;72.92
69086;BME280;56186;59.144;37.936;2022-07-29T04:39:19;100114.41;;;18.95;72.73
69086;BME280;56186;59.144;37.936;2022-07-29T04:41:46;100108.03;;;18.98;72.97
69086;BME280;56186;59.144;37.936;2022-07-29T04:44:13;100118.06;;;19.05;72.95
69086;BME280;56186;59.144;37.936;2022-07-29T04:46:39;100115.03;;;18.99;72.80
69086;BME280;56186;59.144;37.936;2022-07-29T04:49:05;100117.44;;;18.90;72.71
69086;BME280;56186;59.144;37.936;2022-07-29T04:51:31;100070.72;;;18.78;72.88
69086;BME280;56186;59.144;37.936;2022-07-29T04:53:56;100114.22;;;19.21;72.48
69086;BME280;56186;59.144;37.936;2022-07-29T04:56:23;100113.34;;;19.20;71.74
69086;BME280;56186;59.144;37.936;2022-07-29T04:58:49;100122.16;;;19.09;72.25
69086;BME280;56186;59.144;37.936;2022-07-29T05:05:35;100118.06;;;18.70;72.28
69086;BME280;56186;59.144;37.936;2022-07-29T05:08:01;100103.34;;;18.79;72.39
69086;BME280;56186;59.144;37.936;2022-07-29T05:10:27;100114.22;;;19.09;71.99
69086;BME280;56186;59.144;37.936;2022-07-29T05:12:54;100123.13;;;19.31;71.87
69086;BME280;56186;59.144;37.936;2022-07-29T05:15:20;100124.56;;;19.46;71.43
69086;BME280;56186;59.144;37.936;2022-07-29T05:17:46;100123.13;;;19.42;71.11
69086;BME280;56186;59.144;37.936;2022-07-29T05:20:12;100125.41;;;19.47;70.94
69086;BME280;56186;59.144;37.936;2022-07-29T05:22:38;100132.63;;;19.56;70.76
69086;BME280;56186;59.144;37.936;2022-07-29T05:25:04;100129.75;;;19.48;70.54
69086;BME280;56186;59.144;37.936;2022-07-29T05:27:30;100128.78;;;19.49;70.89
69086;BME280;56186;59.144;37.936;2022-07-29T05:29:56;100067.84;;;19.26;70.71
69086;BME280;56186;59.144;37.936;2022-07-29T05:32:22;100067.47;;;19.42;70.26
69086;BME280;56186;59.144;37.936;2022-07-29T05:34:48;100105.16;;;19.80;70.01
69086;BME280;56186;59.144;37.936;2022-07-29T05:37:14;100127.25;;;20.01;69.43
69086;BME280;56186;59.144;37.936;2022-07-29T05:39:40;100121.72;;;20.04;69.10
69086;BME280;56186;59.144;37.936;2022-07-29T05:42:09;100123.16;;;20.08;69.27
69086;BME280;56186;59.144;37.936;2022-07-29T05:44:37;100127.41;;;20.00;68.93
69086;BME280;56186;59.144;37.936;2022-07-29T05:47:03;100146.81;;;20.00;69.62
69086;BME280;56186;59.144;37.936;2022-07-29T05:49:30;100114.63;;;20.05;69.12
69086;BME280;56186;59.144;37.936;2022-07-29T05:51:56;100077.25;;;19.96;69.01
69086;BME280;56186;59.144;37.936;2022-07-29T05:54:22;100111.75;;;20.29;68.61
69086;BME280;56186;59.144;37.936;2022-07-29T05:56:48;100113.03;;;20.34;68.76
69086;BME280;56186;59.144;37.936;2022-07-29T05:59:14;100118.69;;;20.41;68.50
69086;BME280;56186;59.144;37.936;2022-07-29T06:01:40;100110.84;;;20.39;68.09
69086;BME280;56186;59.144;37.936;2022-07-29T06:04:07;100125.50;;;20.55;67.99
69086;BME280;56186;59.144;37.936;2022-07-29T06:06:33;100070.84;;;20.31;67.69
69086;BME280;56186;59.144;37.936;2022-07-29T06:09:01;100120.94;;;20.57;67.38
69086;BME280;56186;59.144;37.936;2022-07-29T06:11:27;100069.41;;;20.27;67.36
69086;BME280;56186;59.144;37.936;2022-07-29T06:13:53;100121.84;;;20.67;67.19
69086;BME280;56186;59.144;37.936;2022-07-29T06:16:19;100087.28;;;20.46;66.54
69086;BME280;56186;59.144;37.936;2022-07-29T06:18:45;100083.25;;;20.31;66.30
69086;BME280;56186;59.144;37.936;2022-07-29T06:21:11;100131.13;;;20.41;66.65
69086;BME280;56186;59.144;37.936;2022-07-29T06:23:38;100119.19;;;20.35;66.63
69086;BME280;56186;59.144;37.936;2022-07-29T06:26:06;100123.94;;;20.52;66.46
69086;BME280;56186;59.144;37.936;2022-07-29T06:28:32;100043.84;;;20.05;65.89
69086;BME280;56186;59.144;37.936;2022-07-29T06:30:59;100101.78;;;20.42;66.01
69086;BME280;56186;59.144;37.936;2022-07-29T06:33:25;100071.25;;;20.27;65.52
69086;BME280;56186;59.144;37.936;2022-07-29T06:35:51;100119.72;;;20.29;65.71
69086;BME280;56186;59.144;37.936;2022-07-29T06:38:17;100128.09;;;20.13;66.43
69086;BME280;56186;59.144;37.936;2022-07-29T06:40:44;100135.53;;;20.19;66.55
69086;BME280;56186;59.144;37.936;2022-07-29T06:43:27;100121.44;;;20.18;66.53
69086;BME280;56186;59.144;37.936;2022-07-29T06:45:54;100124.84;;;20.09;66.04
69086;BME280;56186;59.144;37.936;2022-07-29T06:48:20;100121.16;;;19.89;65.82
69086;BME280;56186;59.144;37.936;2022-07-29T06:50:46;100123.47;;;19.60;66.49
69086;BME280;56186;59.144;37.936;2022-07-29T06:53:12;100136.63;;;19.39;66.56
69086;BME280;56186;59.144;37.936;2022-07-29T06:55:38;100080.38;;;19.02;67.13
69086;BME280;56186;59.144;37.936;2022-07-29T06:58:04;100075.69;;;19.05;66.89
69086;BME280;56186;59.144;37.936;2022-07-29T07:00:30;100131.91;;;19.43;67.49
69086;BME280;56186;59.144;37.936;2022-07-29T07:02:56;100129.25;;;19.54;67.51
69086;BME280;56186;59.144;37.936;2022-07-29T07:05:22;100131.78;;;19.67;67.28
69086;BME280;56186;59.144;37.936;2022-07-29T07:08:11;100130.22;;;19.75;67.33
69086;BME280;56186;59.144;37.936;2022-07-29T07:10:37;100115.25;;;19.63;67.08
69086;BME280;56186;59.144;37.936;2022-07-29T07:13:28;100136.00;;;19.81;66.98
69086;BME280;56186;59.144;37.936;2022-07-29T07:22:22;100107.94;;;19.33;66.88
69086;BME280;56186;59.144;37.936;2022-07-29T07:24:48;100094.34;;;19.15;67.52
69086;BME280;56186;59.144;37.936;2022-07-29T07:27:13;100098.69;;;19.27;67.55
69086;BME280;56186;59.144;37.936;2022-07-29T07:29:39;100107.22;;;19.20;67.47
69086;BME280;56186;59.144;37.936;2022-07-29T07:32:07;100092.78;;;19.24;67.58
69086;BME280;56186;59.144;37.936;2022-07-29T07:34:33;100097.97;;;19.25;67.69
69086;BME280;56186;59.144;37.936;2022-07-29T07:36:59;100123.00;;;19.55;67.33
69086;BME280;56186;59.144;37.936;2022-07-29T07:39:25;100129.50;;;19.73;67.71
69086;BME280;56186;59.144;37.936;2022-07-29T07:41:52;100125.28;;;19.82;66.86
69086;BME280;56186;59.144;37.936;2022-07-29T07:44:18;100140.69;;;20.00;66.76
69086;BME280;56186;59.144;37.936;2022-07-29T07:46:43;100131.84;;;19.99;66.34
69086;BME280;56186;59.144;37.936;2022-07-29T07:49:35;100152.84;;;20.02;65.57
69086;BME280;56186;59.144;37.936;2022-07-29T07:52:01;100157.66;;;19.86;65.65
69086;BME280;56186;59.144;37.936;2022-07-29T07:54:27;100136.47;;;19.74;66.03
69086;BME280;56186;59.144;37.936;2022-07-29T07:56:53;100091.78;;;19.47;66.32
69086;BME280;56186;59.144;37.936;2022-07-29T07:59:19;100140.09;;;19.85;66.05
69086;BME280;56186;59.144;37.936;2022-07-29T08:01:45;100107.56;;;19.71;66.18
69086;BME280;56186;59.144;37.936;2022-07-29T08:04:11;100174.53;;;20.07;66.07
69086;BME280;56186;59.144;37.936;2022-07-29T08:06:37;100116.84;;;19.77;65.83
69086;BME280;56186;59.144;37.936;2022-07-29T08:09:03;100166.47;;;19.98;65.63
69086;BME280;56186;59.144;37.936;2022-07-29T08:11:30;100097.06;;;19.59;65.74
69086;BME280;56186;59.144;37.936;2022-07-29T08:13:56;100154.16;;;19.96;65.66
69086;BME280;56186;59.144;37.936;2022-07-29T08:16:22;100114.56;;;19.84;65.58
69086;BME280;56186;59.144;37.936;2022-07-29T08:18:50;100159.28;;;20.21;65.75
69086;BME280;56186;59.144;37.936;2022-07-29T08:21:17;100163.28;;;20.15;64.44
69086;BME280;56186;59.144;37.936;2022-07-29T08:23:44;100120.31;;;19.89;64.83
69086;BME280;56186;59.144;37.936;2022-07-29T08:26:13;100164.59;;;20.21;64.58
69086;BME280;56186;59.144;37.936;2022-07-29T08:28:40;100153.53;;;20.15;64.54
69086;BME280;56186;59.144;37.936;2022-07-29T08:31:07;100157.72;;;20.29;64.34
69086;BME280;56186;59.144;37.936;2022-07-29T08:33:33;100108.94;;;20.09;64.28
69086;BME280;56186;59.144;37.936;2022-07-29T08:35:59;100165.97;;;20.47;64.35
69086;BME280;56186;59.144;37.936;2022-07-29T08:38:25;100157.16;;;20.47;64.51
69086;BME280;56186;59.144;37.936;2022-07-29T08:40:52;100169.91;;;20.53;64.42
69086;BME280;56186;59.144;37.936;2022-07-29T08:43:19;100129.84;;;20.24;63.91
69086;BME280;56186;59.144;37.936;2022-07-29T08:45:50;100178.13;;;20.50;63.57
69086;BME280;56186;59.144;37.936;2022-07-29T08:48:19;100176.31;;;20.50;63.39
69086;BME280;56186;59.144;37.936;2022-07-29T08:50:47;100181.25;;;20.55;63.24
69086;BME280;56186;59.144;37.936;2022-07-29T08:53:15;100121.66;;;20.27;63.35
69086;BME280;56186;59.144;37.936;2022-07-29T08:55:43;100119.25;;;20.24;63.31
69086;BME280;56186;59.144;37.936;2022-07-29T08:58:10;100173.41;;;20.53;63.28
69086;BME280;56186;59.144;37.936;2022-07-29T09:00:41;100157.00;;;20.48;62.98
69086;BME280;56186;59.144;37.936;2022-07-29T09:03:09;100172.72;;;20.51;62.97
69086;BME280;56186;59.144;37.936;2022-07-29T09:05:41;100173.66;;;20.50;62.91
69086;BME280;56186;59.144;37.936;2022-07-29T09:08:08;100180.19;;;20.46;62.29
69086;BME280;56186;59.144;37.936;2022-07-29T09:10:36;100128.94;;;20.13;62.29
69086;BME280;56186;59.144;37.936;2022-07-29T09:13:02;100117.34;;;20.14;62.50
69086;BME280;56186;59.144;37.936;2022-07-29T09:15:40;100173.41;;;20.53;62.68
69086;BME280;56186;59.144;37.936;2022-07-29T09:18:06;100180.88;;;20.59;62.38
69086;BME280;56186;59.144;37.936;2022-07-29T09:20:32;100151.47;;;20.51;62.49
69086;BME280;56186;59.144;37.936;2022-07-29T09:23:16;100183.69;;;20.58;62.05
69086;BME280;56186;59.144;37.936;2022-07-29T09:25:42;100177.00;;;20.64;62.40
69086;BME280;56186;59.144;37.936;2022-07-29T09:28:11;100175.13;;;20.75;62.15
69086;BME280;56186;59.144;37.936;2022-07-29T09:30:58;100164.47;;;20.87;62.36
69086;BME280;56186;59.144;37.936;2022-07-29T09:33:32;100120.44;;;20.63;61.96
69086;BME280;56186;59.144;37.936;2022-07-29T09:36:02;100171.59;;;20.86;62.19
69086;BME280;56186;59.144;37.936;2022-07-29T09:38:28;100165.00;;;20.81;61.90
69086;BME280;56186;59.144;37.936;2022-07-29T09:40:59;100166.78;;;20.80;61.71
69086;BME280;56186;59.144;37.936;2022-07-29T09:43:25;100138.34;;;20.71;61.80
69086;BME280;56186;59.144;37.936;2022-07-29T09:45:51;100165.16;;;20.89;61.57
69086;BME280;56186;59.144;37.936;2022-07-29T09:48:20;100162.72;;;20.97;61.71
69086;BME280;56186;59.144;37.936;2022-07-29T09:50:50;100132.34;;;20.90;61.67
69086;BME280;56186;59.144;37.936;2022-07-29T09:53:33;100152.06;;;21.18;61.14
69086;BME280;56186;59.144;37.936;2022-07-29T09:56:00;100071.50;;;20.87;61.25
69086;BME280;56186;59.144;37.936;2022-07-29T09:58:27;100103.91;;;21.11;61.15
69086;BME280;56186;59.144;37.936;2022-07-29T10:00:55;100148.34;;;21.51;60.78
69086;BME280;56186;59.144;37.936;2022-07-29T10:03:21;100149.16;;;21.52;60.71
69086;BME280;56186;59.144;37.936;2022-07-29T10:06:23;100156.63;;;21.58;60.44
69086;BME280;56186;59.144;37.936;2022-07-29T10:08:49;100132.50;;;21.50;60.18
69086;BME280;56186;59.144;37.936;2022-07-29T10:11:17;100118.38;;;21.49;60.13
69086;BME280;56186;59.144;37.936;2022-07-29T10:13:44;100142.81;;;21.74;60.67
69086;BME280;56186;59.144;37.936;2022-07-29T10:16:10;100100.94;;;21.66;59.59
69086;BME280;56186;59.144;37.936;2022-07-29T10:18:39;100144.41;;;22.15;59.30
69086;BME280;56186;59.144;37.936;2022-07-29T10:21:06;100135.09;;;22.31;58.34
69086;BME280;56186;59.144;37.936;2022-07-29T10:23:34;100142.53;;;22.37;57.81
69086;BME280;56186;59.144;37.936;2022-07-29T10:26:00;100083.09;;;22.07;57.88
69086;BME280;56186;59.144;37.936;2022-07-29T10:28:26;100138.00;;;22.47;58.00
69086;BME280;56186;59.144;37.936;2022-07-29T10:31:00;100090.00;;;22.29;57.67
69086;BME280;56186;59.144;37.936;2022-07-29T10:33:48;100125.97;;;22.62;56.97
69086;BME280;56186;59.144;37.936;2022-07-29T10:36:38;100134.09;;;22.71;56.88
69086;BME280;56186;59.144;37.936;2022-07-29T10:44:40;100088.97;;;22.40;56.20
69086;BME280;56186;59.144;37.936;2022-07-29T10:47:07;100102.44;;;22.48;56.36
69086;BME280;56186;59.144;37.936;2022-07-29T10:49:34;100122.31;;;22.73;56.01
69086;BME280;56186;59.144;37.936;2022-07-29T10:52:07;100131.81;;;22.95;55.99
69086;BME280;56186;59.144;37.936;2022-07-29T10:54:41;100129.00;;;23.06;55.52
69086;BME280;56186;59.144;37.936;2022-07-29T10:59:44;100069.16;;;22.81;55.43
69086;BME280;56186;59.144;37.936;2022-07-29T11:05:17;100145.22;;;23.23;55.21
69086;BME280;56186;59.144;37.936;2022-07-29T11:10:39;100098.66;;;23.17;55.13
69086;BME280;56186;59.144;37.936;2022-07-29T11:13:05;100128.44;;;23.40;54.80
69086;BME280;56186;59.144;37.936;2022-07-29T11:15:54;100129.09;;;23.52;54.69
69086;BME280;56186;59.144;37.936;2022-07-29T11:18:20;100124.84;;;23.59;54.08
69086;BME280;56186;59.144;37.936;2022-07-29T11:20:48;100002.19;;;22.94;53.46
69086;BME280;56186;59.144;37.936;2022-07-29T11:29:04;100123.56;;;23.63;53.49
69086;BME280;56186;59.144;37.936;2022-07-29T11:34:30;100121.44;;;23.67;53.34
69086;BME280;56186;59.144;37.936;2022-07-29T11:50:13;100139.94;;;23.78;54.12
69086;BME280;56186;59.144;37.936;2022-07-29T11:52:41;100084.84;;;23.32;54.52
69086;BME280;56186;59.144;37.936;2022-07-29T11:55:16;100121.97;;;23.43;54.90
69086;BME280;56186;59.144;37.936;2022-07-29T19:32:53;100240.53;;;17.61;64.85
69086;BME280;56186;59.144;37.936;2022-07-29T19:38:34;100258.09;;;17.88;65.63
69086;BME280;56186;59.144;37.936;2022-07-29T19:41:02;100208.16;;;17.71;66.13
69086;BME280;56186;59.144;37.936;2022-07-29T19:43:57;100258.88;;;18.14;65.88
69086;BME280;56186;59.144;37.936;2022-07-29T19:46:23;100256.28;;;18.25;65.86
69086;BME280;56186;59.144;37.936;2022-07-29T19:49:15;100250.00;;;18.39;65.75
69086;BME280;56186;59.144;37.936;2022-07-29T19:51:41;100220.00;;;18.27;65.51
69086;BME280;56186;59.144;37.936;2022-07-29T19:54:06;100225.25;;;18.40;65.18
69086;BME280;56186;59.144;37.936;2022-07-29T19:56:59;100251.38;;;18.69;64.94
69086;BME280;56186;59.144;37.936;2022-07-29T20:03:43;100212.13;;;18.63;64.36
69086;BME280;56186;59.144;37.936;2022-07-29T20:06:09;100262.16;;;19.03;64.60
69086;BME280;56186;59.144;37.936;2022-07-29T20:19:53;100265.31;;;19.19;64.19
69086;BME280;56186;59.144;37.936;2022-07-29T20:22:21;100252.91;;;19.20;63.94
69086;BME280;56186;59.144;37.936;2022-07-29T20:24:48;100198.19;;;18.85;64.12
69086;BME280;56186;59.144;37.936;2022-07-29T20:27:44;100255.81;;;19.17;63.97
69086;BME280;56186;59.144;37.936;2022-07-29T20:30:10;100210.19;;;18.89;64.18
69086;BME280;56186;59.144;37.936;2022-07-29T20:32:40;100256.03;;;19.13;64.01
69086;BME280;56186;59.144;37.936;2022-07-29T20:35:07;100259.53;;;19.14;64.56
69086;BME280;56186;59.144;37.936;2022-07-29T20:37:33;100243.47;;;19.04;64.19
69086;BME280;56186;59.144;37.936;2022-07-29T20:39:59;100250.84;;;19.12;64.39
69086;BME280;56186;59.144;37.936;2022-07-29T20:42:24;100246.50;;;19.11;64.19
69086;BME280;56186;59.144;37.936;2022-07-29T20:44:50;100239.53;;;19.10;64.33
69086;BME280;56186;59.144;37.936;2022-07-29T20:47:19;100242.91;;;19.12;64.84
69086;BME280;56186;59.144;37.936;2022-07-29T20:50:12;100242.19;;;19.10;64.47
69086;BME280;56186;59.144;37.936;2022-07-29T20:56:27;100237.59;;;19.01;64.58
69086;BME280;56186;59.144;37.936;2022-07-29T20:58:53;100239.34;;;19.00;64.71
69086;BME280;56186;59.144;37.936;2022-07-29T21:01:24;100257.31;;;18.97;65.15
69086;BME280;56186;59.144;37.936;2022-07-29T21:03:49;100249.25;;;18.98;65.00
69086;BME280;56186;59.144;37.936;2022-07-29T21:06:15;100251.38;;;18.93;64.97
69086;BME280;56186;59.144;37.936;2022-07-29T21:08:41;100251.16;;;18.96;64.70
69086;BME280;56186;59.144;37.936;2022-07-29T21:11:07;100242.94;;;18.88;64.80
69086;BME280;56186;59.144;37.936;2022-07-29T21:13:33;100246.09;;;18.93;64.99
69086;BME280;56186;59.144;37.936;2022-07-29T21:37:18;100264.50;;;18.70;65.14
69086;BME280;56186;59.144;37.936;2022-07-29T21:46:16;100258.94;;;18.62;65.83
69086;BME280;56186;59.144;37.936;2022-07-29T21:48:42;100264.81;;;18.66;65.80
69086;BME280;56186;59.144;37.936;2022-07-29T21:51:08;100209.00;;;18.34;65.42
69086;BME280;56186;59.144;37.936;2022-07-29T21:57:48;100258.81;;;18.64;65.81
69086;BME280;56186;59.144;37.936;2022-07-29T22:00:15;100265.28;;;18.60;66.09
69086;BME280;56186;59.144;37.936;2022-07-29T22:06:54;100268.16;;;18.57;66.09
69086;BME280;56186;59.144;37.936;2022-07-29T22:13:37;100264.50;;;18.46;66.28
69086;BME280;56186;59.144;37.936;2022-07-29T22:16:04;100273.78;;;18.52;66.38
69086;BME280;56186;59.144;37.936;2022-07-29T22:22:48;100281.88;;;18.38;66.67
69086;BME280;56186;59.144;37.936;2022-07-29T22:29:34;100212.16;;;18.02;66.43
69086;BME280;56186;59.144;37.936;2022-07-29T22:32:00;100219.25;;;18.01;66.48
69086;BME280;56186;59.144;37.936;2022-07-29T22:43:05;100279.09;;;18.15;67.03
69086;BME280;56186;59.144;37.936;2022-07-29T22:54:07;100280.25;;;18.11;66.82
69086;BME280;56186;59.144;37.936;2022-07-29T23:00:51;100222.63;;;17.78;66.84
69086;BME280;56186;59.144;37.936;2022-07-29T23:03:17;100217.91;;;17.70;66.97
69086;BME280;56186;59.144;37.936;2022-07-29T23:10:03;100294.09;;;18.15;67.19